createdAt,value
2023-05-12T00:01:20.080Z,14.49
2023-05-12T00:03:47.380Z,14.45
2023-05-12T00:06:14.563Z,14.49
2023-05-12T00:08:41.590Z,14.44
2023-05-12T00:11:08.688Z,14.42
2023-05-12T00:13:35.793Z,14.44
2023-05-12T00:16:03.625Z,14.47
2023-05-12T00:18:30.804Z,14.43
2023-05-12T00:20:58.264Z,14.45
2023-05-12T00:23:25.248Z,14.47
2023-05-12T00:25:52.297Z,14.45
2023-05-12T00:28:19.472Z,14.41
2023-05-12T00:30:46.500Z,14.38
2023-05-12T00:33:13.574Z,14.33
2023-05-12T00:35:40.530Z,14.32
2023-05-12T00:38:07.613Z,14.33
2023-05-12T00:40:34.616Z,14.35
2023-05-12T00:43:01.675Z,14.34
2023-05-12T00:45:32.175Z,14.26
2023-05-12T00:47:59.341Z,14.21
2023-05-12T00:50:26.635Z,14.20
2023-05-12T00:52:53.738Z,14.17
2023-05-12T00:55:21.122Z,14.11
2023-05-12T00:57:48.138Z,14.07
2023-05-12T01:00:15.312Z,14.06
2023-05-12T01:02:42.647Z,14.10
2023-05-12T01:05:10.188Z,14.14
2023-05-12T01:07:39.115Z,14.09
2023-05-12T01:10:18.009Z,14.15
2023-05-12T01:12:45.272Z,14.11
2023-05-12T01:15:13.163Z,14.08
2023-05-12T01:17:47.177Z,14.03
2023-05-12T01:20:16.919Z,13.99
2023-05-12T01:22:44.272Z,13.97
2023-05-12T01:25:13.108Z,13.96
2023-05-12T01:27:41.450Z,13.94
2023-05-12T01:30:09.910Z,13.90
2023-05-12T01:32:38.828Z,13.84
2023-05-12T01:35:06.202Z,13.81
2023-05-12T01:37:33.326Z,13.86
2023-05-12T01:40:00.440Z,13.92
2023-05-12T01:42:27.592Z,13.89
2023-05-12T01:44:54.558Z,13.83
2023-05-12T01:47:21.890Z,13.85
2023-05-12T01:49:49.105Z,13.80
2023-05-12T01:52:16.065Z,13.81
2023-05-12T01:54:43.207Z,13.72
2023-05-12T01:57:10.218Z,13.77
2023-05-12T01:59:37.375Z,13.79
2023-05-12T02:02:04.586Z,13.82
2023-05-12T02:04:31.595Z,13.78
2023-05-12T02:06:58.679Z,13.76
2023-05-12T02:09:25.704Z,13.76
2023-05-12T02:11:52.859Z,13.81
2023-05-12T02:14:19.928Z,13.82
2023-05-12T02:16:50.155Z,13.80
2023-05-12T02:19:17.127Z,13.77
2023-05-12T02:21:46.252Z,13.79
2023-05-12T02:24:14.904Z,13.79
2023-05-12T02:26:42.289Z,13.81
2023-05-12T02:29:10.544Z,13.75
2023-05-12T02:31:37.685Z,13.80
2023-05-12T02:34:06.653Z,13.80
2023-05-12T02:36:34.005Z,13.77
2023-05-12T02:39:01.098Z,13.75
2023-05-12T02:41:28.569Z,13.81
2023-05-12T02:43:55.520Z,13.88
2023-05-12T02:46:22.585Z,13.69
2023-05-12T02:48:49.616Z,13.53
2023-05-12T02:51:16.667Z,13.64
2023-05-12T02:53:43.631Z,13.80
2023-05-12T02:56:10.579Z,13.71
2023-05-12T02:58:37.737Z,13.53
2023-05-12T03:01:10.698Z,13.60
2023-05-12T03:03:39.088Z,13.61
2023-05-12T03:06:06.942Z,13.65
2023-05-12T03:08:34.051Z,13.76
2023-05-12T03:11:01.120Z,13.74
2023-05-12T03:13:28.068Z,13.72
2023-05-12T03:15:55.926Z,13.82
2023-05-12T03:18:22.996Z,13.87
2023-05-12T03:20:50.034Z,13.85
2023-05-12T03:23:17.227Z,13.78
2023-05-12T03:25:44.223Z,13.73
2023-05-12T03:28:11.702Z,13.70
2023-05-12T03:30:38.769Z,13.69
2023-05-12T03:33:05.807Z,13.73
2023-05-12T03:35:32.761Z,13.77
2023-05-12T03:37:59.808Z,13.80
2023-05-12T03:40:26.993Z,13.86
2023-05-12T03:42:54.004Z,13.85
2023-05-12T03:45:21.500Z,13.87
2023-05-12T03:47:48.676Z,13.84
2023-05-12T03:50:15.831Z,13.81
2023-05-12T03:52:42.838Z,13.82
2023-05-12T03:55:10.652Z,13.82
2023-05-12T03:57:38.343Z,13.83
2023-05-12T04:00:08.925Z,13.93
2023-05-12T04:02:35.938Z,13.85
2023-05-12T04:05:03.003Z,13.86
2023-05-12T04:07:30.020Z,13.88
2023-05-12T04:09:57.020Z,13.86
2023-05-12T04:12:24.296Z,13.86
2023-05-12T04:14:51.828Z,13.90
2023-05-12T04:17:21.564Z,13.93
2023-05-12T04:19:48.667Z,13.88
2023-05-12T04:22:15.777Z,13.87
2023-05-12T04:24:42.708Z,13.80
2023-05-12T04:27:09.784Z,13.80
2023-05-12T04:29:37.232Z,13.76
2023-05-12T04:32:04.540Z,13.84
2023-05-12T04:34:31.705Z,13.82
2023-05-12T04:36:58.634Z,13.83
2023-05-12T04:39:25.717Z,13.84
2023-05-12T04:41:52.701Z,13.86
2023-05-12T04:44:19.675Z,13.83
2023-05-12T04:46:46.661Z,13.83
2023-05-12T04:49:13.637Z,13.82
2023-05-12T04:51:43.075Z,13.82
2023-05-12T04:54:10.619Z,13.88
2023-05-12T04:56:37.863Z,13.94
2023-05-12T04:59:05.040Z,13.94
2023-05-12T05:01:32.216Z,13.97
2023-05-12T05:03:59.257Z,14.06
2023-05-12T05:06:26.309Z,14.07
2023-05-12T05:08:53.361Z,14.04
2023-05-12T05:11:22.014Z,14.06
2023-05-12T05:13:49.069Z,14.11
2023-05-12T05:16:16.140Z,14.11
2023-05-12T05:18:46.685Z,14.15
2023-05-12T05:21:16.927Z,14.11
2023-05-12T05:23:43.919Z,14.07
2023-05-12T05:26:10.985Z,14.17
2023-05-12T05:28:40.129Z,14.24
2023-05-12T05:31:07.727Z,14.23
2023-05-12T05:33:34.800Z,14.22
2023-05-12T05:36:01.973Z,14.22
2023-05-12T05:38:29.028Z,14.30
2023-05-12T05:40:56.165Z,14.42
2023-05-12T05:43:23.284Z,14.47
2023-05-12T05:45:50.850Z,14.48
2023-05-12T05:48:18.284Z,14.50
2023-05-12T05:50:45.423Z,14.47
2023-05-12T05:53:12.394Z,14.46
2023-05-12T05:55:39.431Z,14.52
2023-05-12T05:58:06.380Z,14.51
2023-05-12T06:00:33.373Z,14.57
2023-05-12T06:03:00.494Z,14.60
2023-05-12T06:05:27.729Z,14.64
2023-05-12T06:07:54.828Z,14.67
2023-05-12T06:10:22.403Z,14.74
2023-05-12T06:12:50.650Z,14.82
2023-05-12T06:15:18.892Z,14.85
2023-05-12T06:17:46.216Z,14.87
2023-05-12T06:20:13.664Z,14.97
2023-05-12T06:22:42.546Z,14.97
2023-05-12T06:25:09.837Z,15.02
2023-05-12T06:27:36.939Z,15.04
2023-05-12T06:30:04.508Z,15.15
2023-05-12T06:32:31.690Z,15.22
2023-05-12T06:34:59.064Z,15.29
2023-05-12T06:37:26.040Z,15.33
2023-05-12T06:39:53.101Z,15.39
2023-05-12T06:42:20.107Z,15.40
2023-05-12T06:44:47.152Z,15.55
2023-05-12T06:47:14.124Z,15.73
2023-05-12T06:49:41.140Z,15.86
2023-05-12T06:52:08.164Z,15.95
2023-05-12T06:54:35.210Z,16.03
2023-05-12T06:57:02.214Z,15.99
2023-05-12T06:59:29.276Z,15.93
2023-05-12T07:01:56.404Z,15.78
2023-05-12T07:04:24.515Z,15.71
2023-05-12T07:06:52.728Z,15.78
2023-05-12T07:09:19.982Z,15.85
2023-05-12T07:11:47.240Z,15.89
2023-05-12T07:14:14.251Z,15.95
2023-05-12T07:16:41.269Z,16.00
2023-05-12T07:19:09.777Z,16.14
2023-05-12T07:21:37.333Z,16.24
2023-05-12T07:24:06.285Z,16.25
2023-05-12T07:26:33.576Z,16.22
2023-05-12T07:29:01.332Z,16.30
2023-05-12T07:31:29.007Z,16.36
2023-05-12T07:33:56.208Z,16.34
2023-05-12T07:36:23.367Z,16.39
2023-05-12T07:38:50.441Z,16.48
2023-05-12T07:41:18.163Z,16.68
2023-05-12T07:43:45.700Z,16.75
2023-05-12T07:46:12.874Z,16.74
2023-05-12T07:48:40.587Z,16.79
2023-05-12T07:51:08.059Z,16.85
2023-05-12T07:53:35.626Z,16.91
2023-05-12T07:56:02.815Z,17.00
2023-05-12T07:58:30.062Z,17.07
2023-05-12T08:00:59.281Z,17.10
2023-05-12T08:03:26.615Z,17.13
2023-05-12T08:05:53.721Z,17.18
2023-05-12T08:08:20.756Z,17.23
2023-05-12T08:10:47.741Z,17.28
2023-05-12T08:13:14.752Z,17.32
2023-05-12T08:15:41.785Z,17.34
2023-05-12T08:18:09.107Z,17.34
2023-05-12T08:20:36.286Z,17.35
2023-05-12T08:23:03.298Z,17.41
2023-05-12T08:25:30.817Z,17.48
2023-05-12T08:27:59.503Z,17.52
2023-05-12T08:30:27.355Z,17.51
2023-05-12T08:32:57.473Z,17.51
2023-05-12T08:35:26.684Z,17.43
2023-05-12T08:37:53.842Z,17.38
2023-05-12T08:40:23.368Z,17.52
2023-05-12T08:43:18.587Z,17.54
2023-05-12T08:45:47.339Z,17.57
2023-05-12T08:48:17.202Z,17.67
2023-05-12T08:50:44.993Z,17.70
2023-05-12T08:53:13.882Z,17.73
2023-05-12T08:55:58.413Z,17.79
2023-05-12T08:58:40.993Z,17.84
2023-05-12T09:01:12.363Z,17.93
2023-05-12T09:03:42.487Z,17.98
2023-05-12T09:06:11.646Z,18.00
2023-05-12T09:08:39.599Z,18.03
2023-05-12T09:11:08.809Z,18.15
2023-05-12T09:14:01.112Z,18.31
2023-05-12T09:16:31.633Z,18.20
2023-05-12T09:19:00.879Z,18.22
2023-05-12T09:21:28.796Z,18.27
2023-05-12T09:24:01.298Z,18.25
2023-05-12T09:26:29.164Z,18.26
2023-05-12T09:29:08.957Z,18.26
2023-05-12T09:31:36.582Z,18.26
2023-05-12T09:34:10.444Z,18.32
2023-05-12T09:36:37.675Z,18.39
2023-05-12T09:39:07.365Z,18.38
2023-05-12T09:41:38.799Z,18.55
2023-05-12T09:44:07.145Z,18.59
2023-05-12T09:46:35.209Z,18.67
2023-05-12T09:49:05.421Z,18.83
2023-05-12T09:51:32.681Z,18.73
2023-05-12T09:54:00.946Z,18.74
2023-05-12T09:56:31.520Z,18.68
2023-05-12T09:58:58.985Z,18.66
2023-05-12T10:01:27.267Z,18.70
2023-05-12T10:03:57.190Z,18.75
2023-05-12T10:06:30.678Z,18.85
2023-05-12T10:09:16.622Z,18.70
2023-05-12T10:11:44.852Z,18.73
2023-05-12T10:14:13.594Z,18.81
2023-05-12T10:16:41.663Z,18.88
2023-05-12T10:19:09.764Z,18.90
2023-05-12T10:21:38.274Z,18.98
2023-05-12T10:24:05.692Z,18.97
2023-05-12T10:26:35.089Z,19.13
2023-05-12T10:29:02.477Z,19.17
2023-05-12T10:31:30.402Z,19.15
2023-05-12T10:34:02.025Z,19.22
2023-05-12T10:36:29.710Z,19.18
2023-05-12T10:39:05.826Z,19.24
2023-05-12T10:41:34.787Z,19.34
2023-05-12T10:44:01.782Z,19.27
2023-05-12T10:46:30.700Z,19.23
2023-05-12T10:49:07.001Z,19.33
2023-05-12T10:51:43.288Z,19.47
2023-05-12T10:54:12.678Z,19.72
2023-05-12T10:56:40.183Z,19.85
2023-05-12T10:59:28.896Z,20.07
2023-05-12T11:01:58.954Z,20.06
2023-05-12T11:04:56.137Z,20.12
2023-05-12T11:07:27.239Z,19.94
2023-05-12T11:09:59.263Z,20.07
2023-05-12T11:12:33.059Z,19.95
2023-05-12T11:15:01.710Z,19.91
2023-05-12T11:17:29.938Z,20.00
2023-05-12T11:19:57.120Z,20.01
2023-05-12T11:22:24.615Z,20.04
2023-05-12T11:24:53.114Z,20.17
2023-05-12T11:27:23.344Z,20.21
2023-05-12T11:29:58.677Z,20.21
2023-05-12T11:32:25.876Z,20.14
2023-05-12T11:34:53.310Z,20.23
2023-05-12T11:37:21.486Z,20.36
2023-05-12T11:39:48.892Z,20.45
2023-05-12T11:42:17.716Z,20.40
2023-05-12T11:44:50.648Z,20.23
2023-05-12T11:47:20.050Z,20.34
2023-05-12T11:49:58.215Z,20.50
2023-05-12T11:52:30.682Z,20.61
2023-05-12T11:55:01.078Z,20.68
2023-05-12T11:57:32.847Z,20.60
2023-05-12T12:00:02.424Z,20.56
2023-05-12T12:02:33.541Z,20.50
2023-05-12T12:05:03.466Z,20.44
2023-05-12T12:07:37.652Z,20.48
2023-05-12T12:10:18.520Z,20.63
2023-05-12T12:12:46.402Z,20.56
2023-05-12T12:15:15.868Z,20.43
2023-05-12T12:17:42.868Z,20.34
2023-05-12T12:20:13.286Z,20.31
2023-05-12T12:22:43.308Z,20.41
2023-05-12T12:25:10.269Z,20.53
2023-05-12T12:27:39.760Z,20.79
2023-05-12T12:30:07.467Z,20.91
2023-05-12T12:32:34.455Z,21.12
2023-05-12T12:35:06.844Z,21.17
2023-05-12T12:37:33.809Z,21.15
2023-05-12T12:40:08.074Z,21.10
2023-05-12T12:42:36.327Z,21.10
2023-05-12T12:45:05.222Z,21.15
2023-05-12T12:47:32.435Z,21.22
2023-05-12T12:49:59.998Z,21.25
2023-05-12T12:52:29.767Z,21.31
2023-05-12T12:54:57.581Z,21.39
2023-05-12T12:57:31.894Z,21.73
2023-05-12T12:59:58.812Z,21.78
2023-05-12T13:02:30.647Z,21.49
2023-05-12T13:04:57.796Z,21.35
2023-05-12T13:07:27.331Z,21.47
2023-05-12T13:09:54.400Z,21.58
2023-05-12T13:12:21.414Z,21.68
2023-05-12T13:14:48.457Z,21.75
2023-05-12T13:17:18.230Z,21.79
2023-05-12T13:19:45.198Z,21.65
2023-05-12T13:22:13.371Z,21.51
2023-05-12T13:24:40.338Z,21.31
2023-05-12T13:27:10.059Z,21.14
2023-05-12T13:29:37.334Z,21.02
2023-05-12T13:32:07.078Z,21.03
2023-05-12T13:34:34.090Z,20.96
2023-05-12T13:37:04.080Z,20.92
2023-05-12T13:39:33.411Z,20.97
2023-05-12T13:42:00.653Z,20.97
2023-05-12T13:44:31.267Z,21.00
2023-05-12T13:46:58.284Z,21.02
2023-05-12T13:49:31.241Z,20.95
2023-05-12T13:51:58.235Z,20.96
2023-05-12T13:54:25.476Z,20.92
2023-05-12T13:56:54.648Z,20.98
2023-05-12T13:59:21.752Z,20.97
2023-05-12T14:01:49.018Z,20.93
2023-05-12T14:04:16.500Z,21.13
2023-05-12T14:06:46.217Z,21.22
2023-05-12T14:09:14.395Z,21.36
2023-05-12T14:11:41.442Z,21.53
2023-05-12T14:14:08.474Z,21.87
2023-05-12T14:16:36.970Z,22.07
2023-05-12T14:19:04.147Z,22.22
2023-05-12T14:21:31.159Z,22.09
2023-05-12T14:23:58.204Z,21.94
2023-05-12T14:26:26.273Z,21.76
2023-05-12T14:28:53.405Z,21.58
2023-05-12T14:31:20.605Z,21.44
2023-05-12T14:33:47.648Z,21.31
2023-05-12T14:36:14.617Z,21.26
2023-05-12T14:38:42.875Z,21.51
2023-05-12T14:41:09.971Z,21.73
2023-05-12T14:43:37.334Z,21.83
2023-05-12T14:46:04.691Z,21.75
2023-05-12T14:48:32.050Z,21.87
2023-05-12T14:50:59.191Z,22.04
2023-05-12T14:53:26.364Z,22.20
2023-05-12T14:55:53.368Z,22.27
2023-05-12T14:58:22.332Z,22.35
2023-05-12T15:00:52.372Z,22.50
2023-05-12T15:03:21.625Z,22.47
2023-05-12T15:08:21.905Z,22.44
2023-05-12T15:10:49.174Z,22.69
2023-05-12T15:13:18.413Z,22.66
2023-05-12T15:15:45.820Z,22.45
2023-05-12T15:18:12.819Z,22.44
2023-05-12T15:20:39.980Z,22.28
2023-05-12T15:23:07.044Z,22.03
2023-05-12T15:25:34.149Z,21.86
2023-05-12T15:28:01.146Z,21.90
2023-05-12T15:30:28.209Z,22.16
2023-05-12T15:32:55.296Z,21.94
2023-05-12T15:35:22.925Z,22.37
2023-05-12T15:37:50.127Z,22.50
2023-05-12T15:40:17.437Z,22.83
2023-05-12T15:42:44.687Z,23.03
2023-05-12T15:45:11.784Z,23.15
2023-05-12T15:47:38.869Z,23.33
2023-05-12T15:50:06.594Z,23.53
2023-05-12T15:52:33.633Z,23.65
2023-05-12T15:55:01.155Z,23.71
2023-05-12T15:57:28.192Z,23.72
2023-05-12T15:59:59.082Z,23.74
2023-05-12T16:02:26.475Z,23.53
2023-05-12T16:04:53.641Z,22.95
2023-05-12T16:07:20.921Z,23.19
2023-05-12T16:09:47.924Z,23.33
2023-05-12T16:12:15.648Z,23.37
2023-05-12T16:14:42.671Z,23.34
2023-05-12T16:17:09.749Z,23.18
2023-05-12T16:19:36.745Z,23.23
2023-05-12T16:22:03.770Z,23.37
2023-05-12T16:24:30.700Z,23.43
2023-05-12T16:26:59.460Z,23.46
2023-05-12T16:29:26.949Z,23.46
2023-05-12T16:31:53.934Z,23.43
2023-05-12T16:34:21.343Z,23.51
2023-05-12T16:36:49.041Z,23.50
2023-05-12T16:39:16.091Z,23.49
2023-05-12T16:41:43.036Z,23.54
2023-05-12T16:44:10.143Z,23.49
2023-05-12T16:46:39.302Z,23.42
2023-05-12T16:49:07.701Z,23.41
2023-05-12T16:51:35.771Z,23.41
2023-05-12T16:54:02.733Z,23.38
2023-05-12T16:56:29.687Z,23.38
2023-05-12T16:58:56.741Z,23.30
2023-05-12T17:01:23.795Z,23.21
2023-05-12T17:03:51.217Z,23.27
2023-05-12T17:06:18.268Z,23.21
2023-05-12T17:08:45.309Z,23.15
2023-05-12T17:11:12.286Z,23.09
2023-05-12T17:13:39.340Z,22.88
2023-05-12T17:16:07.008Z,22.75
2023-05-12T17:19:13.671Z,22.48
2023-05-12T17:21:21.003Z,22.24
2023-05-12T17:23:48.466Z,22.02
2023-05-12T17:26:15.885Z,21.89
2023-05-12T17:28:43.305Z,21.84
2023-05-12T17:31:10.796Z,21.67
2023-05-12T17:33:37.850Z,21.61
2023-05-12T17:36:12.461Z,21.54
2023-05-12T17:38:41.105Z,21.44
2023-05-12T17:41:08.121Z,21.39
2023-05-12T17:43:35.100Z,21.31
2023-05-12T17:46:03.093Z,21.28
2023-05-12T17:48:33.457Z,21.20
2023-05-12T17:51:01.511Z,21.10
2023-05-12T17:53:29.185Z,21.02
2023-05-12T17:55:56.201Z,20.96
2023-05-12T17:58:23.575Z,20.89
2023-05-12T18:00:50.739Z,20.88
2023-05-12T18:03:23.505Z,20.82
2023-05-12T18:05:52.282Z,20.70
2023-05-12T18:08:19.310Z,20.63
2023-05-12T18:10:46.855Z,20.56
2023-05-12T18:13:14.880Z,20.54
2023-05-12T18:15:42.098Z,20.50
2023-05-12T18:18:10.304Z,20.47
2023-05-12T18:20:37.391Z,20.40
2023-05-12T18:23:04.499Z,20.37
2023-05-12T18:25:31.582Z,20.33
2023-05-12T18:27:58.567Z,20.27
2023-05-12T18:30:25.691Z,20.23
2023-05-12T18:32:52.903Z,20.18
2023-05-12T18:35:20.142Z,20.12
2023-05-12T18:37:47.362Z,20.06
2023-05-12T18:40:14.631Z,19.99
2023-05-12T18:42:41.712Z,19.94
2023-05-12T18:45:09.126Z,19.90
2023-05-12T18:47:36.229Z,19.85
2023-05-12T18:50:04.391Z,19.77
2023-05-12T18:52:31.453Z,19.71
2023-05-12T18:54:58.610Z,19.66
2023-05-12T18:57:25.755Z,19.60
2023-05-12T18:59:52.890Z,19.53
2023-05-12T19:02:19.932Z,19.51
2023-05-12T19:04:47.040Z,19.48
2023-05-12T19:07:15.637Z,19.39
2023-05-12T19:09:43.526Z,19.33
2023-05-12T19:12:13.409Z,19.31
2023-05-12T19:14:40.979Z,19.27
2023-05-12T19:17:08.047Z,19.19
2023-05-12T19:19:35.165Z,19.15
2023-05-12T19:22:04.256Z,19.11
2023-05-12T19:24:31.637Z,19.08
2023-05-12T19:26:58.725Z,19.03
2023-05-12T19:29:26.292Z,18.98
2023-05-12T19:31:53.839Z,18.92
2023-05-12T19:34:21.680Z,18.88
2023-05-12T19:36:48.783Z,18.84
2023-05-12T19:39:15.779Z,18.78
2023-05-12T19:41:42.974Z,18.71
2023-05-12T19:44:09.899Z,18.68
2023-05-12T19:46:37.018Z,18.63
2023-05-12T19:49:04.426Z,18.61
2023-05-12T19:51:32.177Z,18.56
2023-05-12T19:53:59.627Z,18.48
2023-05-12T19:56:27.311Z,18.41
2023-05-12T19:58:54.281Z,18.40
2023-05-12T20:01:21.478Z,18.35
2023-05-12T20:03:48.652Z,18.33
2023-05-12T20:06:15.778Z,18.30
2023-05-12T20:08:42.746Z,18.25
2023-05-12T20:11:09.903Z,18.16
2023-05-12T20:13:36.948Z,18.14
2023-05-12T20:16:04.299Z,18.12
2023-05-12T20:18:31.477Z,18.03
2023-05-12T20:20:58.524Z,17.98
2023-05-12T20:23:25.666Z,17.96
2023-05-12T20:25:53.414Z,17.91
2023-05-12T20:28:21.528Z,17.87
2023-05-12T20:30:48.528Z,17.84
2023-05-12T20:33:15.661Z,17.76
2023-05-12T20:35:42.634Z,17.69
2023-05-12T20:38:09.654Z,17.71
2023-05-12T20:40:36.627Z,17.67
2023-05-12T20:43:03.897Z,17.59
2023-05-12T20:45:30.893Z,17.55
2023-05-12T20:47:57.920Z,17.53
2023-05-12T20:50:27.013Z,17.49
2023-05-12T20:52:54.025Z,17.46
2023-05-12T20:55:21.259Z,17.42
2023-05-12T20:57:48.428Z,17.38
2023-05-12T21:00:15.815Z,17.32
2023-05-12T21:02:42.926Z,17.25
2023-05-12T21:05:10.444Z,17.22
2023-05-12T21:07:37.497Z,17.17
2023-05-12T21:10:04.889Z,17.17
2023-05-12T21:12:31.917Z,17.10
2023-05-12T21:14:58.957Z,17.03
2023-05-12T21:17:26.061Z,16.97
2023-05-12T21:19:53.074Z,16.93
2023-05-12T21:22:20.439Z,16.89
2023-05-12T21:24:47.803Z,16.83
2023-05-12T21:27:15.892Z,16.78
2023-05-12T21:29:43.011Z,16.76
2023-05-12T21:32:10.007Z,16.71
2023-05-12T21:34:37.094Z,16.69
2023-05-12T21:37:04.161Z,16.62
2023-05-12T21:39:31.334Z,16.61
2023-05-12T21:41:58.322Z,16.57
2023-05-12T21:44:25.513Z,16.56
2023-05-12T21:46:52.515Z,16.52
2023-05-12T21:49:19.589Z,16.51
2023-05-12T21:51:46.633Z,16.49
2023-05-12T21:54:13.638Z,16.45
2023-05-12T21:56:40.730Z,16.42
2023-05-12T21:59:07.718Z,16.36
2023-05-12T22:01:34.802Z,16.36
2023-05-12T22:04:01.965Z,16.30
2023-05-12T22:06:29.067Z,16.23
2023-05-12T22:08:56.138Z,16.17
2023-05-12T22:11:23.717Z,16.14
2023-05-12T22:13:51.284Z,16.13
2023-05-12T22:16:20.020Z,16.08
2023-05-12T22:18:51.043Z,16.05
2023-05-12T22:21:18.030Z,16.10
2023-05-12T22:23:45.077Z,16.02
2023-05-12T22:26:12.074Z,16.01
2023-05-12T22:28:39.076Z,15.95
2023-05-12T22:31:06.140Z,15.94
2023-05-12T22:33:34.751Z,15.91
2023-05-12T22:36:01.869Z,15.90
2023-05-12T22:38:28.862Z,15.89
2023-05-12T22:40:56.059Z,15.84
2023-05-12T22:43:23.039Z,15.89
2023-05-12T22:45:53.137Z,15.77
2023-05-12T22:48:20.402Z,15.74
2023-05-12T22:50:47.657Z,15.67
2023-05-12T22:53:15.007Z,15.66
2023-05-12T22:55:42.064Z,15.67
2023-05-12T22:58:10.468Z,15.65
2023-05-12T23:00:37.846Z,15.56
2023-05-12T23:03:05.069Z,15.54
2023-05-12T23:05:32.180Z,15.52
2023-05-12T23:07:59.164Z,15.45
2023-05-12T23:10:26.257Z,15.39
2023-05-12T23:12:53.261Z,15.35
2023-05-12T23:15:20.510Z,15.29
2023-05-12T23:17:47.654Z,15.30
2023-05-12T23:20:14.714Z,15.33
2023-05-12T23:22:41.698Z,15.30
2023-05-12T23:25:09.286Z,15.26
2023-05-12T23:27:37.220Z,15.19
2023-05-12T23:30:04.931Z,15.20
2023-05-12T23:32:32.303Z,15.18
2023-05-12T23:34:59.481Z,15.17
2023-05-12T23:37:26.881Z,15.12
2023-05-12T23:39:53.944Z,15.07
2023-05-12T23:42:21.353Z,15.05
2023-05-12T23:44:48.397Z,15.02
2023-05-12T23:47:15.405Z,14.99
2023-05-12T23:49:42.388Z,14.97
2023-05-12T23:52:09.443Z,15.02
2023-05-12T23:54:36.420Z,14.95
2023-05-12T23:57:03.771Z,14.99
2023-05-12T23:59:31.032Z,14.99
